createdAt,value
2023-09-23T00:01:49.862Z,13.9
2023-09-23T00:07:51.902Z,13.9
2023-09-23T00:12:37.834Z,13.8
2023-09-23T00:13:54.179Z,13.8
2023-09-23T00:16:55.208Z,13.8
2023-09-23T00:28:59.299Z,13.6
2023-09-23T00:35:01.347Z,13.6
2023-09-23T00:38:02.367Z,13.6
2023-09-23T00:42:48.077Z,13.5
2023-09-23T00:47:05.440Z,13.5
2023-09-23T00:50:06.460Z,13.4
2023-09-23T00:53:07.480Z,13.4
2023-09-23T00:56:08.504Z,13.3
2023-09-23T01:11:13.619Z,13.2
2023-09-23T01:12:58.331Z,13.2
2023-09-23T01:14:14.640Z,13.2
2023-09-23T01:17:15.661Z,13.1
2023-09-23T01:20:16.687Z,13.1
2023-09-23T01:23:17.711Z,13.1
2023-09-23T01:26:18.737Z,13.1
2023-09-23T01:29:19.752Z,13.1
2023-09-23T01:32:20.775Z,13.2
2023-09-23T01:38:22.825Z,13.3
2023-09-23T01:41:23.849Z,13.4
2023-09-23T01:43:08.579Z,13.5
2023-09-23T01:44:24.877Z,13.5
2023-09-23T01:47:25.895Z,13.5
2023-09-23T01:50:26.923Z,13.6
2023-09-23T01:53:27.939Z,13.6
2023-09-23T01:56:28.959Z,13.6
2023-09-23T01:59:29.982Z,13.6
2023-09-23T02:02:31.008Z,13.6
2023-09-23T02:05:32.033Z,13.6
2023-09-23T02:08:33.054Z,13.6
2023-09-23T02:11:34.077Z,13.6
2023-09-23T02:13:18.822Z,13.5
2023-09-23T02:14:35.104Z,13.5
2023-09-23T02:20:37.149Z,13.3
2023-09-23T02:23:38.174Z,13.3
2023-09-23T02:26:39.194Z,13.2
2023-09-23T02:29:40.214Z,13.1
2023-09-23T02:32:41.243Z,13
2023-09-23T02:35:42.264Z,13
2023-09-23T02:38:43.280Z,12.8
2023-09-23T02:41:44.305Z,12.8
2023-09-23T02:43:29.074Z,12.8
2023-09-23T02:44:45.326Z,12.8
2023-09-23T02:50:47.378Z,12.7
2023-09-23T02:53:48.397Z,12.6
2023-09-23T02:59:50.449Z,12.6
2023-09-23T03:02:51.469Z,12.6
2023-09-23T03:08:53.511Z,12.6
2023-09-23T03:11:54.536Z,12.7
2023-09-23T03:17:56.582Z,12.6
2023-09-23T03:20:57.603Z,12.6
2023-09-23T03:23:58.631Z,12.6
2023-09-23T03:30:00.675Z,12.5
2023-09-23T03:33:01.701Z,12.3
2023-09-23T03:36:02.722Z,12.2
2023-09-23T03:39:03.743Z,12.1
2023-09-23T03:42:04.768Z,11.9
2023-09-23T03:43:49.566Z,11.8
2023-09-23T03:45:05.791Z,11.8
2023-09-23T03:48:06.818Z,11.8
2023-09-23T03:51:07.840Z,11.7
2023-09-23T03:54:08.861Z,11.7
2023-09-23T03:57:09.882Z,11.5
2023-09-23T04:00:10.904Z,11.5
2023-09-23T04:03:11.933Z,11.6
2023-09-23T04:06:12.955Z,11.7
2023-09-23T04:09:13.976Z,11.8
2023-09-23T04:12:14.996Z,11.8
2023-09-23T04:13:59.819Z,11.8
2023-09-23T04:15:16.019Z,11.9
2023-09-23T04:18:17.046Z,11.9
2023-09-23T04:21:18.069Z,12
2023-09-23T04:24:19.087Z,12
2023-09-23T04:27:20.112Z,12.2
2023-09-23T04:30:21.130Z,12.3
2023-09-23T04:33:22.153Z,12.4
2023-09-23T04:36:23.182Z,12.4
2023-09-23T04:39:24.202Z,12.5
2023-09-23T04:44:10.062Z,12.4
2023-09-23T04:48:27.273Z,12.4
2023-09-23T04:51:28.293Z,12.4
2023-09-23T04:54:29.317Z,12.4
2023-09-23T04:57:30.346Z,12.4
2023-09-23T05:14:20.308Z,12.4
2023-09-23T05:15:36.479Z,12.3
2023-09-23T05:18:37.504Z,12.3
2023-09-23T05:21:38.527Z,12.2
2023-09-23T05:24:39.557Z,12.2
2023-09-23T05:27:40.571Z,12.1
2023-09-23T05:30:41.598Z,12.1
2023-09-23T05:33:42.620Z,12
2023-09-23T05:36:43.648Z,12
2023-09-23T05:39:44.664Z,12
2023-09-23T05:42:45.690Z,12.1
2023-09-23T05:45:46.713Z,12.2
2023-09-23T05:48:47.740Z,12.1
2023-09-23T05:51:48.764Z,12.1
2023-09-23T05:54:49.783Z,12.1
2023-09-23T05:57:50.807Z,12.1
2023-09-23T06:00:51.829Z,12.1
2023-09-23T06:06:53.877Z,12.2
2023-09-23T06:09:54.898Z,12.3
2023-09-23T06:14:40.809Z,12.2
2023-09-23T06:15:56.950Z,12.2
2023-09-23T06:18:57.973Z,12.1
2023-09-23T06:21:58.999Z,12.1
2023-09-23T06:25:00.017Z,12.2
2023-09-23T06:28:01.037Z,12.4
2023-09-23T06:31:02.065Z,12.4
2023-09-23T06:34:03.084Z,12.5
2023-09-23T06:37:04.113Z,12.6
2023-09-23T06:40:05.134Z,12.6
2023-09-23T06:43:06.152Z,12.8
2023-09-23T06:44:51.059Z,13
2023-09-23T06:46:07.184Z,13.1
2023-09-23T06:49:08.205Z,13.1
2023-09-23T07:01:12.295Z,13.6
2023-09-23T07:04:13.319Z,13.7
2023-09-23T07:07:14.348Z,13.8
2023-09-23T07:13:16.393Z,14
2023-09-23T07:15:01.313Z,14.1
2023-09-23T07:19:18.444Z,14.2
2023-09-23T07:22:19.462Z,14.2
2023-09-23T07:25:20.484Z,14
2023-09-23T07:37:24.577Z,14.3
2023-09-23T07:40:25.600Z,14.5
2023-09-23T07:43:26.624Z,14.6
2023-09-23T07:46:27.650Z,14.6
2023-09-23T07:49:28.669Z,14.7
2023-09-23T07:52:29.694Z,14.8
2023-09-23T07:55:30.716Z,14.9
2023-09-23T07:58:31.734Z,14.8
2023-09-23T08:01:32.757Z,14.9
2023-09-23T08:04:33.786Z,14.8
2023-09-23T08:10:34.987Z,15.1
2023-09-23T08:12:13.613Z,15.3
2023-09-23T08:13:44.122Z,15.4
2023-09-23T08:15:14.640Z,15.5
2023-09-23T08:16:29.274Z,15.5
2023-09-23T08:17:44.342Z,15.5
2023-09-23T08:19:14.862Z,15.5
2023-09-23T08:22:15.886Z,15.5
2023-09-23T08:26:47.424Z,15.6
2023-09-23T08:28:17.937Z,15.5
2023-09-23T08:29:48.445Z,15.4
2023-09-23T08:31:18.954Z,15.2
2023-09-23T08:32:34.024Z,15.2
2023-09-23T08:35:19.616Z,15.3
2023-09-23T08:36:50.129Z,15.3
2023-09-23T08:38:20.640Z,15.3
2023-09-23T08:39:51.146Z,15.3
2023-09-23T08:42:52.178Z,15.2
2023-09-23T08:47:23.715Z,15.1
2023-09-23T08:48:38.788Z,15.1
2023-09-23T08:49:53.579Z,15.1
2023-09-23T08:51:32.201Z,15.2
2023-09-23T08:53:02.712Z,15.2
2023-09-23T08:54:33.230Z,15.2
2023-09-23T08:56:03.738Z,15.3
2023-09-23T08:57:34.248Z,15.2
2023-09-23T08:59:04.759Z,15.2
2023-09-23T09:00:35.276Z,15.1
2023-09-23T09:02:05.792Z,14.9
2023-09-23T09:03:36.303Z,14.8
2023-09-23T09:04:51.368Z,14.8
2023-09-23T09:09:15.305Z,14.8
2023-09-23T09:10:45.813Z,15
2023-09-23T09:12:16.335Z,15.1
2023-09-23T09:13:46.841Z,15.3
2023-09-23T09:15:17.352Z,15.4
2023-09-23T09:16:47.864Z,15.5
2023-09-23T09:18:18.375Z,15.6
2023-09-23T09:21:03.959Z,16
2023-09-23T09:22:19.035Z,16
2023-09-23T09:25:20.064Z,16.3
2023-09-23T09:26:50.648Z,16.3
2023-09-23T09:29:59.786Z,16.4
2023-09-23T09:31:30.296Z,16.2
2023-09-23T09:33:00.812Z,16.2
2023-09-23T09:34:31.321Z,16.4
2023-09-23T09:36:01.833Z,16.3
2023-09-23T09:37:16.902Z,16.3
2023-09-23T09:40:02.488Z,16.3
2023-09-23T09:41:33.003Z,16.3
2023-09-23T09:43:03.516Z,16.3
2023-09-23T09:44:34.025Z,16.3
2023-09-23T09:46:04.541Z,16.4
2023-09-23T09:47:35.054Z,16.4
2023-09-23T09:49:05.560Z,16.5
2023-09-23T09:50:36.078Z,16.5
2023-09-23T09:52:06.592Z,16.8
2023-09-23T09:53:21.659Z,17.2
2023-09-23T09:54:36.458Z,17.3
2023-09-23T09:56:15.084Z,17.3
2023-09-23T09:57:45.591Z,17.2
2023-09-23T09:59:16.110Z,17.2
2023-09-23T10:00:46.616Z,17.1
2023-09-23T10:02:17.135Z,17.1
2023-09-23T10:03:47.640Z,17.1
2023-09-23T10:06:48.670Z,16.7
2023-09-23T10:08:19.180Z,16.6
2023-09-23T10:10:48.889Z,16.6
2023-09-23T10:12:19.400Z,16.6
2023-09-23T10:13:49.918Z,16.8
2023-09-23T10:18:21.449Z,17.4
2023-09-23T10:21:22.480Z,17.3
2023-09-23T10:24:23.510Z,17
2023-09-23T10:25:38.580Z,17.1
2023-09-23T10:26:53.651Z,17.2
2023-09-23T10:28:24.166Z,17.2
2023-09-23T10:32:55.702Z,17.2
2023-09-23T10:35:56.728Z,17.9
2023-09-23T10:37:27.238Z,18.2
2023-09-23T10:40:28.262Z,18.1
2023-09-23T10:41:43.336Z,18.2
2023-09-23T10:42:58.407Z,18.2
2023-09-23T10:49:00.452Z,18.3
2023-09-23T10:50:30.968Z,18.3
2023-09-23T10:52:01.481Z,18.4
2023-09-23T10:53:31.994Z,18.6
2023-09-23T10:56:33.015Z,18.8
2023-09-23T10:57:48.084Z,18.9
2023-09-23T10:59:03.155Z,18.9
2023-09-23T11:00:33.673Z,18.8
2023-09-23T11:03:34.692Z,18.9
2023-09-23T11:07:34.382Z,18.6
2023-09-23T11:10:35.404Z,18
2023-09-23T11:12:54.138Z,17.7
2023-09-23T11:14:10.113Z,17.6
2023-09-23T11:20:12.152Z,17.6
2023-09-23T11:23:13.179Z,17.4
2023-09-23T11:26:14.193Z,17.6
2023-09-23T11:29:15.216Z,18
2023-09-23T11:35:17.261Z,17.7
2023-09-23T11:38:18.278Z,18.1
2023-09-23T11:41:19.298Z,18.3
2023-09-23T11:43:04.373Z,18.4
2023-09-23T11:47:21.367Z,18.1
2023-09-23T11:59:25.461Z,17.7
2023-09-23T12:05:27.499Z,17.6
2023-09-23T12:13:14.610Z,18.6
2023-09-23T12:20:32.624Z,19
2023-09-23T12:23:33.656Z,19.1
2023-09-23T12:29:35.693Z,19.5
2023-09-23T12:32:36.720Z,19.5
2023-09-23T12:41:39.789Z,18.6
2023-09-23T12:43:24.852Z,18.1
2023-09-23T12:44:40.829Z,17.9
2023-09-23T12:50:42.872Z,17.6
2023-09-23T12:59:13.175Z,17.6
2023-09-23T13:02:14.190Z,17.9
2023-09-23T13:05:15.216Z,18.3
2023-09-23T13:08:16.238Z,18.4
2023-09-23T13:11:17.260Z,18.4
2023-09-23T13:13:35.087Z,18.5
2023-09-23T13:14:51.061Z,18.7
2023-09-23T13:17:52.087Z,18.8
2023-09-23T13:20:53.113Z,18.9
2023-09-23T13:26:55.152Z,18.6
2023-09-23T13:29:56.171Z,18.9
2023-09-23T13:43:45.325Z,19.2
2023-09-23T13:46:39.409Z,19
2023-09-23T13:48:09.918Z,18.8
2023-09-23T13:49:40.429Z,18.6
2023-09-23T13:51:10.944Z,18.5
2023-09-23T13:52:41.454Z,18.4
2023-09-23T13:54:11.963Z,18.4
2023-09-23T13:55:42.477Z,18.4
2023-09-23T13:57:12.992Z,18.5
2023-09-23T13:58:43.499Z,18.6
2023-09-23T14:01:44.519Z,18.8
2023-09-23T14:06:16.059Z,18.8
2023-09-23T14:07:46.572Z,18.6
2023-09-23T14:10:47.592Z,18.4
2023-09-23T14:12:18.108Z,18.5
2023-09-23T14:13:48.619Z,18.7
2023-09-23T14:15:03.698Z,18.9
2023-09-23T14:17:49.268Z,19
2023-09-23T14:19:19.787Z,19
2023-09-23T14:24:49.984Z,19
2023-09-23T14:27:51.011Z,19
2023-09-23T14:30:09.738Z,18.6
2023-09-23T14:34:26.741Z,18.4
2023-09-23T14:37:27.762Z,18.4
2023-09-23T14:40:28.782Z,18.4
2023-09-23T14:43:29.810Z,18.2
2023-09-23T14:46:30.832Z,18
2023-09-23T14:49:31.853Z,18.2
2023-09-23T14:52:32.879Z,18.5
2023-09-23T14:55:33.897Z,18.6
2023-09-23T14:58:34.920Z,18.6
2023-09-23T15:07:37.985Z,18.6
2023-09-23T15:10:39.002Z,18.6
2023-09-23T15:13:40.027Z,18.5
2023-09-23T15:16:41.052Z,18.4
2023-09-23T15:19:42.075Z,18.2
2023-09-23T15:22:43.092Z,18.1
2023-09-23T15:25:02.572Z,18
2023-09-23T15:29:19.576Z,17.9
2023-09-23T15:35:21.622Z,17.8
2023-09-23T15:40:50.899Z,17.8
2023-09-23T15:43:51.921Z,17.6
2023-09-23T15:49:53.974Z,17.6
2023-09-23T15:52:54.996Z,17.5
2023-09-23T15:55:12.824Z,17.4
2023-09-23T15:56:28.283Z,17.2
2023-09-23T15:58:06.901Z,17.2
2023-09-23T16:01:07.924Z,17.1
2023-09-23T16:04:08.948Z,17.2
2023-09-23T16:05:39.459Z,17.2
2023-09-23T16:07:09.978Z,17.2
2023-09-23T16:08:40.486Z,17.2
2023-09-23T16:11:41.508Z,17.3
2023-09-23T16:13:12.022Z,17.3
2023-09-23T16:14:42.536Z,17.3
2023-09-23T16:16:13.050Z,17.3
2023-09-23T16:17:43.561Z,17.3
2023-09-23T16:19:14.080Z,17.3
2023-09-23T16:20:44.592Z,17.3
2023-09-23T16:22:15.099Z,17.2
2023-09-23T16:23:45.611Z,17.2
2023-09-23T16:25:16.129Z,17.1
2023-09-23T16:26:31.196Z,17.1
2023-09-23T16:30:46.853Z,16.9
2023-09-23T16:32:17.370Z,16.8
2023-09-23T16:35:18.392Z,16.7
2023-09-23T16:36:48.902Z,16.6
2023-09-23T16:42:35.518Z,16.3
2023-09-23T16:46:51.606Z,16.1
2023-09-23T16:48:22.127Z,16
2023-09-23T16:55:54.760Z,15.6
2023-09-23T16:57:33.385Z,15.5
2023-09-23T16:58:48.455Z,15.4
2023-09-23T17:00:03.090Z,15.4
2023-09-23T17:01:33.606Z,15.3
2023-09-23T17:06:05.137Z,15
2023-09-23T17:09:06.165Z,14.8
2023-09-23T17:10:36.757Z,14.8
2023-09-23T17:13:45.892Z,14.6
2023-09-23T17:15:00.521Z,14.5
2023-09-23T17:16:15.600Z,14.5
2023-09-23T17:17:46.109Z,14.4
2023-09-23T17:19:16.618Z,14.3
2023-09-23T17:23:48.157Z,14
2023-09-23T17:26:49.180Z,13.9
2023-09-23T17:28:19.698Z,13.9
2023-09-23T17:29:50.288Z,13.9
2023-09-23T17:31:05.365Z,13.9
2023-09-23T17:33:50.509Z,13.8
2023-09-23T17:35:21.023Z,13.8
2023-09-23T17:38:22.044Z,13.8
2023-09-23T17:39:52.555Z,13.8
2023-09-23T17:41:23.072Z,13.7
2023-09-23T17:44:24.177Z,13.6
2023-09-23T17:48:32.611Z,13.4
2023-09-23T17:50:03.123Z,13.3
2023-09-23T17:51:33.634Z,13.2
2023-09-23T17:53:04.143Z,13.2
2023-09-23T17:54:34.663Z,13.1
2023-09-23T17:59:06.195Z,13.1
2023-09-23T18:02:07.217Z,13
2023-09-23T18:03:22.342Z,13
2023-09-23T18:04:37.469Z,12.9
2023-09-23T18:16:41.568Z,12.6
2023-09-23T18:19:27.204Z,12.7
2023-09-23T18:22:20.682Z,12.8
2023-09-23T18:31:23.748Z,12.8
2023-09-23T18:42:57.075Z,12.7
2023-09-23T18:45:58.181Z,12.7
2023-09-23T18:47:36.801Z,12.7
2023-09-23T18:59:10.135Z,12.6
2023-09-23T19:13:44.485Z,11.8
2023-09-23T19:19:46.533Z,11.8
2023-09-23T19:22:47.557Z,11.8
2023-09-23T19:29:49.347Z,11.9
2023-09-23T19:31:19.855Z,11.9
2023-09-23T19:34:20.878Z,11.9
2023-09-23T19:35:51.395Z,11.9
2023-09-23T19:38:52.422Z,12
2023-09-23T19:40:07.543Z,12
2023-09-23T19:41:22.669Z,12
2023-09-23T19:42:53.183Z,12
2023-09-23T19:50:25.742Z,12
2023-09-23T19:54:57.282Z,12.1
2023-09-23T19:56:12.402Z,12.1
2023-09-23T19:57:27.530Z,12.1
2023-09-23T19:58:58.126Z,12.1
2023-09-23T20:06:38.796Z,12
2023-09-23T20:08:09.311Z,11.9
2023-09-23T20:12:25.458Z,11.9
2023-09-23T20:15:11.094Z,11.9
2023-09-23T20:18:12.123Z,11.9
2023-09-23T20:19:42.718Z,11.9
2023-09-23T20:21:21.334Z,11.9
2023-09-23T20:28:38.515Z,11.9
2023-09-23T20:29:53.640Z,11.9
2023-09-23T20:32:54.661Z,11.8
2023-09-23T20:35:55.691Z,11.7
2023-09-23T20:37:26.197Z,11.6
2023-09-23T20:38:56.715Z,11.5
2023-09-23T20:40:27.229Z,11.4
2023-09-23T20:44:43.374Z,11.1
2023-09-23T20:47:29.012Z,10.9
2023-09-23T20:48:59.523Z,11
2023-09-23T20:50:30.037Z,10.9
2023-09-23T20:52:00.634Z,10.9
2023-09-23T20:58:10.789Z,10.9
2023-09-23T21:00:56.422Z,10.8
2023-09-23T21:02:11.552Z,10.7
2023-09-23T21:03:42.061Z,10.7
2023-09-23T21:05:12.576Z,10.6
2023-09-23T21:06:43.091Z,10.6
2023-09-23T21:09:44.112Z,10.6
2023-09-23T21:11:14.626Z,10.6
2023-09-23T21:12:45.138Z,10.6
2023-09-23T21:14:15.653Z,10.6
2023-09-23T21:15:46.162Z,10.6
2023-09-23T21:17:01.291Z,10.6
2023-09-23T21:18:15.979Z,10.6
2023-09-23T21:19:46.484Z,10.5
2023-09-23T21:21:17.004Z,10.5
2023-09-23T21:22:47.517Z,10.4
2023-09-23T21:24:18.028Z,10.4
2023-09-23T21:41:53.404Z,10.8
2023-09-23T21:46:24.937Z,10.9
2023-09-23T21:49:10.582Z,10.9
2023-09-23T21:50:25.706Z,10.9
2023-09-23T21:51:56.222Z,10.9
2023-09-23T21:54:57.240Z,10.9
2023-09-23T21:56:27.752Z,10.9
2023-09-23T21:57:58.265Z,10.9
2023-09-23T21:59:28.781Z,10.9
2023-09-23T22:00:59.298Z,10.9
2023-09-23T22:02:29.808Z,10.9
2023-09-23T22:05:15.092Z,10.9
2023-09-23T22:09:31.236Z,10.9
2023-09-23T22:11:01.749Z,10.8
2023-09-23T22:12:32.263Z,10.7
2023-09-23T22:14:02.776Z,10.7
2023-09-23T22:15:33.287Z,10.6
2023-09-23T22:18:34.312Z,10.4
2023-09-23T22:20:04.823Z,10.4
2023-09-23T22:21:19.949Z,10.3
2023-09-23T22:22:35.075Z,10.2
2023-09-23T22:24:05.591Z,10.2
2023-09-23T22:25:36.108Z,10.2
2023-09-23T22:27:06.619Z,10.2
2023-09-23T22:28:37.133Z,10.2
2023-09-23T22:30:07.646Z,10.1
2023-09-23T22:31:38.154Z,10.1
2023-09-23T22:33:08.665Z,10.1
2023-09-23T22:36:17.879Z,10.1
2023-09-23T22:37:32.569Z,10.1
2023-09-23T22:38:47.418Z,10.2
2023-09-23T22:41:56.558Z,10.2
2023-09-23T22:43:27.064Z,10.3
2023-09-23T22:44:57.577Z,10.3
2023-09-23T22:46:28.091Z,10.4
2023-09-23T22:47:58.608Z,10.4
2023-09-23T22:53:45.274Z,10.4
2023-09-23T22:55:00.400Z,10.5
2023-09-23T22:56:30.909Z,10.5
2023-09-23T22:58:01.508Z,10.5
2023-09-23T22:59:40.129Z,10.5
2023-09-23T23:01:10.637Z,10.5
2023-09-23T23:04:11.664Z,10.6
2023-09-23T23:05:42.178Z,10.5
2023-09-23T23:07:12.684Z,10.5
2023-09-23T23:08:43.200Z,10.4
2023-09-23T23:12:44.044Z,10.2
2023-09-23T23:14:22.667Z,10.2
2023-09-23T23:17:23.691Z,10.1
2023-09-23T23:18:54.210Z,10.1
2023-09-23T23:23:25.747Z,10
2023-09-23T23:26:11.387Z,10
2023-09-23T23:28:57.023Z,10
2023-09-23T23:33:28.557Z,10.1
2023-09-23T23:38:00.097Z,10.2
2023-09-23T23:39:30.611Z,10.3
2023-09-23T23:41:01.116Z,10.3
2023-09-23T23:42:16.247Z,10.4
2023-09-23T23:46:32.394Z,10.3
2023-09-23T23:48:02.912Z,10.3
2023-09-23T23:52:34.451Z,10.3
2023-09-23T23:55:35.471Z,10.3
2023-09-23T23:58:21.114Z,10.3
2023-09-23T23:59:36.237Z,10.3
